Latest Weather Observations for Pallamana

IDS60801

Issued at 1:04 pm CDT Tuesday 2 March 2021 (issued every 10 minutes, with the page automatically refreshed every 10 minutes)

About weather observations | Map of weather stations | Latest weather observations for SA | Other Formats
Station Details ID: 024584 Name: PALLAMANA AERODROME Lat: -35.06 Lon: 139.23 Height: 45.0 m
Data from the previous 72 hours. | See also: Recent months at Pallamana
Date/Time
CDT
Temp
°C
App
Temp
°C
Dew
Point
°C
Rel
Hum
%
Delta-T
°C
Wind Press
QNH
hPa
Press
MSL
hPa
Rain since
9am
mm
Dir  Spd
km/h
Gust
km/h
Spd
kts
Gust
kts
02/01:00pm 19.2 14.5 3.0 34 7.5 SE 17 30 9 16 1019.9 1019.8 0.0
02/12:30pm 18.7 14.0 3.3 36 7.2 SE 17 28 9 15 1020.5 1020.4 0.0
02/12:00pm 17.8 12.9 4.0 40 6.5 SE 19 28 10 15 1021.0 1020.9 0.0
02/11:30am 17.3 12.7 3.6 40 6.4 ESE 17 24 9 13 1021.5 1021.4 0.0
02/11:00am 16.3 11.8 4.4 45 5.6 SE 17 28 9 15 1021.7 1021.6 0.0
02/10:30am 16.2 11.2 4.6 46 5.4 SE 20 28 11 15 1021.7 1021.6 0.0
02/10:00am 15.5 10.7 5.7 52 4.7 SE 20 28 11 15 1022.0 1021.9 0.0
02/09:30am 14.1 10.3 5.7 57 4.0 ESE 15 20 8 11 1022.1 1022.0 0.0
02/09:00am 12.9 10.7 6.0 63 3.3 ESE 7 13 4 7 1021.9 1021.8 0.0
02/08:30am 11.5 9.3 6.0 69 2.6 SE 7 11 4 6 1021.6 1021.5 0.0
02/08:00am 10.3 8.2 6.5 77 1.8 S 7 9 4 5 1021.3 1021.2 0.0
02/07:30am 8.4 6.1 5.7 83 1.2 SSW 7 9 4 5 1021.3 1021.2 0.0
02/07:00am 7.3 4.5 5.0 85 1.0 SSW 9 11 5 6 1020.8 1020.7 0.0
02/06:30am 7.6 5.1 4.7 82 1.3 S 7 9 4 5 1020.4 1020.3 0.0
02/06:00am 8.0 5.6 5.1 82 1.3 S 7 9 4 5 1020.3 1020.2 0.0
02/05:30am 8.2 5.4 5.0 80 1.4 S 9 11 5 6 1020.0 1019.9 0.0
02/05:00am 8.8 6.4 5.4 79 1.5 SSW 7 9 4 5 1020.0 1019.9 0.0
02/04:30am 9.5 6.4 5.5 76 1.8 S 11 13 6 7 1019.6 1019.5 0.0
02/04:00am 9.8 6.3 5.6 75 1.9 S 13 15 7 8 1019.5 1019.4 0.0
02/03:30am 10.4 7.3 5.6 72 2.2 S 11 13 6 7 1019.6 1019.5 0.0
02/03:00am 10.8 7.8 5.8 71 2.3 S 11 15 6 8 1019.6 1019.5 0.0
02/02:30am 11.5 7.4 6.2 70 2.5 S 17 20 9 11 1019.2 1019.1 0.0
02/02:00am 11.6 7.7 6.9 73 2.2 S 17 20 9 11 1019.3 1019.2 0.0
02/01:30am 12.2 8.5 7.9 75 2.1 S 17 20 9 11 1019.3 1019.2 0.0
02/01:00am 12.8 9.3 8.9 77 2.0 S 17 20 9 11 1019.4 1019.3 0.0
02/12:30am 13.6 9.9 9.6 77 2.0 S 19 26 10 14 1019.4 1019.3 0.0
02/12:00am 13.8 10.8 10.6 81 1.7 S 17 20 9 11 1019.3 1019.2 0.0
 
Date/Time
CDT
Temp
°C
App
Temp
°C
Dew
Point
°C
Rel
Hum
%
Delta-T
°C
Wind Press
QNH
hPa
Press
MSL
hPa
Rain since
9am
mm
Dir  Spd
km/h
Gust
km/h
Spd
kts
Gust
kts
01/11:30pm 14.5 11.5 10.7 78 2.0 S 17 20 9 11 1019.1 1019.0 0.0
01/11:00pm 14.5 12.4 11.1 80 1.8 S 13 17 7 9 1019.2 1019.1 0.0
01/10:30pm 15.1 12.5 11.9 81 1.7 SSW 17 24 9 13 1019.0 1018.9 0.0
01/10:00pm 15.5 12.4 12.3 81 1.8 SSW 20 26 11 14 1018.9 1018.8 0.0
01/09:30pm 15.9 12.9 12.6 81 1.8 SSW 20 30 11 16 1018.7 1018.6 0.0
01/09:00pm 16.3 13.0 12.7 79 2.0 SSW 22 30 12 16 1018.1 1018.0 0.0
01/08:30pm 16.8 14.4 12.7 77 2.3 SSW 17 28 9 15 1018.0 1017.9 0.0
01/08:00pm 17.2 13.5 12.7 75 2.5 S 24 32 13 17 1017.6 1017.5 0.0
01/07:30pm 17.8 14.0 12.5 71 2.9 S 24 33 13 18 1017.5 1017.4 0.0
01/07:00pm 18.9 14.8 12.6 67 3.5 S 26 37 14 20 1017.2 1017.1 0.0
01/06:30pm 19.7 14.8 12.5 63 4.0 SSW 30 39 16 21 1017.0 1016.8 0.0
01/06:00pm 20.5 14.9 11.4 56 5.0 S 32 41 17 22 1016.6 1016.4 0.0
01/05:30pm 21.6 15.7 10.4 49 6.1 S 32 46 17 25 1016.2 1016.0 0.0
01/05:00pm 21.8 14.8 8.3 42 7.1 S 35 48 19 26 1016.0 1015.8 0.0
01/04:30pm 21.8 15.7 9.7 46 6.5 SSW 32 48 17 26 1016.1 1015.9 0.0
01/04:00pm 22.2 16.4 10.7 48 6.3 S 32 46 17 25 1016.2 1016.0 0.0
01/03:30pm 21.9 15.7 11.3 51 5.9 SSW 35 50 19 27 1016.0 1015.8 0.0
01/03:10pm 22.6 17.3 11.4 49 6.3 S 30 48 16 26 1016.0 1015.8 0.0
01/03:00pm 22.4 16.5 11.2 49 6.2 S 33 46 18 25 1016.2 1016.0 0.0
01/02:30pm 22.0 16.7 11.1 50 6.0 S 30 46 16 25 1016.5 1016.3 0.0
01/02:00pm 22.2 16.8 12.2 53 5.7 S 32 39 17 21 1016.6 1016.4 0.0
01/01:30pm 22.7 18.1 11.1 48 6.4 S 26 41 14 22 1017.3 1017.2 0.0
01/01:00pm 22.2 17.9 11.9 52 5.8 S 26 39 14 21 1017.3 1017.2 0.0
01/12:30pm 21.8 17.7 11.5 52 5.7 S 24 43 13 23 1017.7 1017.6 0.0
01/12:00pm 21.2 16.8 11.8 55 5.2 SSW 26 35 14 19 1018.0 1017.9 0.0
01/11:30am 21.7 18.9 12.5 56 5.2 SSW 19 33 10 18 1018.2 1018.1 0.0
01/11:00am 19.7 16.1 12.0 61 4.3 S 22 30 12 16 1018.0 1017.9 0.0
01/10:30am 20.3 16.9 12.5 61 4.4 SSW 22 35 12 19 1017.9 1017.8 0.0
01/10:00am 19.0 15.5 12.3 65 3.7 SSW 22 30 12 16 1017.5 1017.3 0.0
01/09:30am 18.4 14.9 12.2 67 3.4 S 22 32 12 17 1017.0 1016.8 0.0
01/09:00am 17.7 13.8 12.2 70 3.0 S 24 30 13 16 1017.0 1016.8 0.0
01/08:30am 17.3 14.3 12.4 73 2.7 S 20 32 11 17 1016.9 1016.7 0.0
01/08:00am 16.3 14.6 12.5 78 2.1 S 13 19 7 10 1016.1 1015.9 0.0
01/07:30am 15.4 14.4 12.3 82 1.7 SSW 9 11 5 6 1016.4 1016.2 0.0
01/07:00am 15.0 14.0 12.3 84 1.5 SSW 9 11 5 6 1016.1 1015.9 0.0
01/06:30am 14.7 13.3 12.2 85 1.4 SW 11 13 6 7 1015.6 1015.4 0.0
01/06:00am 14.6 13.5 11.9 84 1.5 SSW 9 11 5 6 1015.2 1015.0 0.0
01/05:30am 14.8 13.7 12.1 84 1.5 SW 9 11 5 6 1015.2 1015.0 0.0
01/05:00am 14.8 13.7 11.9 83 1.6 SSW 9 13 5 7 1014.8 1014.6 0.0
01/04:30am 15.2 14.6 12.2 82 1.6 SSW 7 9 4 5 1014.7 1014.5 0.0
01/04:00am 15.3 13.9 12.2 82 1.7 S 11 15 6 8 1014.3 1014.1 0.0
01/03:30am 15.8 14.1 12.4 80 1.9 S 13 17 7 9 1014.2 1014.0 0.0
01/03:00am 16.0 14.3 12.4 79 2.0 SSE 13 17 7 9 1014.2 1014.0 0.0
01/02:30am 16.3 14.6 12.5 78 2.1 SSW 13 20 7 11 1014.3 1014.1 0.0
01/02:00am 16.4 13.9 12.4 77 2.2 S 17 26 9 14 1014.3 1014.1 0.0
01/01:30am 16.6 14.6 12.6 77 2.2 SSW 15 20 8 11 1014.6 1014.4 0.0
01/01:00am 16.7 13.9 12.5 76 2.3 SSW 19 26 10 14 1014.9 1014.7 0.0
01/12:30am 16.7 14.0 12.8 78 2.2 SSW 19 26 10 14 1014.3 1014.1 0.0
01/12:00am 16.3 14.3 12.8 80 1.9 S 15 22 8 12 1014.2 1014.0 0.0
 
Date/Time
CDT
Temp
°C
App
Temp
°C
Dew
Point
°C
Rel
Hum
%
Delta-T
°C
Wind Press
QNH
hPa
Press
MSL
hPa
Rain since
9am
mm
Dir  Spd
km/h
Gust
km/h
Spd
kts
Gust
kts
28/11:30pm 16.4 14.1 12.9 80 1.9 S 17 24 9 13 1014.5 1014.3 0.0
28/11:00pm 15.9 13.9 12.6 81 1.8 SSW 15 20 8 11 1014.9 1014.7 0.0
28/10:30pm 15.6 13.2 12.5 82 1.7 SSW 17 20 9 11 1014.7 1014.5 0.0
28/10:00pm 16.0 14.0 12.6 80 1.9 SSW 15 17 8 9 1014.7 1014.5 0.0
28/09:30pm 16.1 13.7 12.5 79 2.0 SSW 17 22 9 12 1014.5 1014.3 0.0
28/09:00pm 16.5 13.6 12.8 79 2.1 SSW 20 28 11 15 1013.9 1013.7 0.0
28/08:30pm 16.8 13.5 12.7 77 2.3 SSW 22 32 12 17 1013.9 1013.7 0.0
28/08:00pm 17.3 13.6 12.6 74 2.6 SSW 24 33 13 18 1013.5 1013.3 0.0
28/07:30pm 18.1 14.3 12.5 70 3.1 SSW 24 35 13 19 1013.2 1013.0 0.0
28/07:00pm 19.1 14.2 12.6 66 3.6 SSW 30 39 16 21 1012.9 1012.7 0.0
28/06:30pm 19.9 15.3 12.4 62 4.2 SSW 28 39 15 21 1012.7 1012.5 0.0
28/06:00pm 20.6 16.1 12.6 60 4.5 S 28 39 15 21 1012.1 1011.9 0.0
28/05:30pm 21.2 16.3 12.6 58 4.9 S 30 37 16 20 1012.1 1011.9 0.0
28/05:00pm 21.9 17.5 13.0 57 5.1 SSW 28 39 15 21 1012.0 1011.8 0.0
28/04:30pm 22.5 17.7 13.0 55 5.5 SSW 30 39 16 21 1012.1 1011.9 0.0
28/04:00pm 22.9 17.8 13.1 54 5.7 S 32 46 17 25 1012.1 1011.9 0.0
28/03:30pm 23.4 19.1 13.3 53 5.9 SSW 28 39 15 21 1012.1 1011.9 0.0
28/03:00pm 23.2 18.5 13.1 53 5.8 S 30 39 16 21 1012.1 1011.9 0.0
28/02:30pm 24.4 20.5 13.3 50 6.5 S 26 35 14 19 1012.2 1012.0 0.0
28/02:00pm 23.5 18.6 12.5 50 6.3 S 30 39 16 21 1012.0 1011.8 0.0
28/01:30pm 24.4 20.3 12.7 48 6.8 SSW 26 33 14 18 1012.2 1012.0 0.0
28/01:00pm 25.0 21.4 12.9 47 7.0 S 24 35 13 19 1012.0 1011.8 0.0
28/12:30pm 24.3 21.0 12.9 49 6.6 S 22 32 12 17 1012.3 1012.1 0.0
28/12:00pm 23.8 21.0 13.1 51 6.2 SSW 20 30 11 16 1012.7 1012.5 0.0
28/11:30am 23.7 20.8 13.0 51 6.2 SW 20 30 11 16 1013.0 1012.8 0.0
28/11:00am 22.0 19.2 13.1 57 5.1 SSW 20 28 11 15 1013.4 1013.2 0.0
28/10:30am 21.1 18.4 13.5 62 4.4 SSW 20 30 11 16 1013.5 1013.3 0.0
28/10:00am 19.7 16.6 13.4 67 3.6 SW 22 30 12 16 1013.4 1013.2 0.0
28/09:30am 18.1 14.7 13.6 75 2.6 SW 24 32 13 17 1013.4 1013.2 0.0
28/09:00am 17.7 13.6 13.8 78 2.2 SW 28 33 15 18 1013.2 1013.0 0.0
28/08:30am 17.2 14.4 14.3 83 1.7 SW 22 26 12 14 1013.1 1012.9 0.0
28/08:00am 15.4 12.9 13.6 89 1.0 WSW 19 22 10 12 1013.0 1012.8 0.0
28/07:30am 14.1 11.8 13.1 94 0.6 WSW 17 19 9 10 1012.5 1012.3 0.0
28/07:00am 13.8 11.5 13.0 95 0.4 WSW 17 20 9 11 1012.2 1012.0 0.0
28/06:30am 13.7 11.4 12.9 95 0.4 WSW 17 20 9 11 1012.0 1011.8 0.0
28/06:00am 14.0 12.1 13.1 94 0.5 W 15 17 8 9 1011.9 1011.7 0.0
28/05:30am 13.9 12.3 12.8 93 0.6 W 13 15 7 8 1011.9 1011.7 0.0
28/05:00am 14.1 12.2 13.0 93 0.6 W 15 17 8 9 1011.7 1011.5 0.0
28/04:30am 14.2 11.9 12.9 92 0.7 W 17 20 9 11 1012.1 1011.9 0.0
28/04:00am 14.1 12.1 12.8 92 0.7 W 15 19 8 10 1012.1 1011.9 0.0
28/03:30am 13.9 12.3 12.8 93 0.6 W 13 17 7 9 1012.2 1012.0 0.0
28/03:00am 14.0 12.4 12.7 92 0.7 W 13 19 7 10 1012.0 1011.8 0.0
28/02:30am 13.8 12.8 12.4 91 0.8 WSW 9 13 5 7 1012.3 1012.1 0.0
28/02:00am 14.3 12.7 12.7 90 0.9 W 13 17 7 9 1012.7 1012.5 0.0
28/01:30am 14.3 13.1 12.7 90 0.9 W 11 15 6 8 1012.9 1012.7 0.0
28/01:00am 14.2 11.8 12.8 91 0.8 WSW 17 17 9 9 1013.2 1013.0 0.0
28/12:30am 13.8 12.1 12.5 92 0.7 WSW 13 15 7 8 1013.2 1013.0 0.0
28/12:00am 14.1 12.9 12.7 91 0.8 WSW 11 13 6 7 1013.0 1012.8 0.0
 
Date/Time
CDT
Temp
°C
App
Temp
°C
Dew
Point
°C
Rel
Hum
%
Delta-T
°C
Wind Press
QNH
hPa
Press
MSL
hPa
Rain since
9am
mm
Dir  Spd
km/h
Gust
km/h
Spd
kts
Gust
kts
27/11:30pm 14.5 12.9 12.9 90 0.9 WSW 13 15 7 8 1012.9 1012.7 0.0
27/11:00pm 14.9 13.4 13.1 89 1.0 SW 13 17 7 9 1013.0 1012.8 0.0
27/10:30pm 15.0 13.9 13.2 89 1.0 SW 11 15 6 8 1013.0 1012.8 0.0
27/10:00pm 15.6 14.2 13.3 86 1.3 SSW 13 17 7 9 1012.8 1012.6 0.0
27/09:30pm 16.2 14.1 13.5 84 1.5 SSW 17 20 9 11 1013.0 1012.8 0.0
27/09:00pm 16.7 14.5 13.2 80 2.0 SSW 17 26 9 14 1012.7 1012.5 0.0
27/08:30pm 17.2 14.5 13.5 79 2.1 SSW 20 30 11 16 1012.3 1012.1 0.0
27/08:00pm 17.9 14.0 13.2 74 2.7 SSW 26 35 14 19 1011.9 1011.7 0.0
27/07:30pm 19.2 14.0 12.9 67 3.6 SSW 32 39 17 21 1011.0 1010.9 0.0
27/07:00pm 20.9 15.5 12.3 58 4.8 SSW 32 41 17 22 1010.8 1010.7 0.0
27/06:30pm 22.6 17.0 12.0 51 6.0 SW 33 39 18 21 1010.4 1010.3 0.0
27/06:00pm 24.3 19.6 11.9 45 7.1 SSW 28 35 15 19 1010.0 1009.9 0.0
27/05:30pm 25.8 20.1 11.9 42 8.0 SSW 33 41 18 22 1009.7 1009.6 0.0
27/05:00pm 28.3 22.4 10.5 33 10.1 SSW 32 43 17 23 1009.4 1009.3 0.0
27/04:30pm 29.0 23.5 9.2 29 11.0 SSW 28 37 15 20 1009.3 1009.2 0.0
27/04:00pm 29.5 24.1 8.0 26 11.7 SSW 26 37 14 20 1009.3 1009.2 0.0
27/03:30pm 30.7 24.6 6.6 22 13.0 W 28 39 15 21 1009.5 1009.4 0.0
27/03:25pm 31.0 24.8 6.1 21 13.3 W 28 39 15 21 1009.5 1009.4 0.0
27/03:00pm 29.9 27.4 6.5 23 12.5 ENE 9 17 5 9 1009.8 1009.7 0.0
27/02:30pm 28.9 26.5 6.9 25 11.8 NNW 9 19 5 10 1010.3 1010.2 0.0
27/02:00pm 28.8 26.4 6.8 25 11.7 N 9 19 5 10 1010.7 1010.6 0.0
27/01:30pm 27.6 24.3 6.4 26 11.2 E 13 28 7 15 1011.1 1011.0 0.0

Other formats

Comma delimited format used in spreadsheet applications
http://www.bom.gov.au/fwo/IDS60801/IDS60801.95818.axf

JavaScript Object Notation format (JSON) in row-major order
http://www.bom.gov.au/fwo/IDS60801/IDS60801.95818.json

Data quality

Most of these data are generated automatically and are frequently updated. Quality checks on data are not normally performed. It is possible for incorrect values to appear. Refer to information at About Latest Weather Observations and please check the disclaimer before using these data.